Time;durP1;ratioP1;P1;durP2;ratioP2;P2;SDS_P1;SDS_P2;PMS_P1;PMS_P2;Temp;Humidity;BMP_temperature;BMP_pressure;BME280_temperature;BME280_humidity;BME280_pressure;Samples;Min_cycle;Max_cycle;Signal;HPM_P1;HPM_P2
2021/11/04 00:01:59;;;;;;;0.40;0.30;;;;;;;9.36;69.68;99647.52;112046;1192;94926;-78
2021/11/04 00:04:27;;;;;;;0.40;0.30;;;;;;;9.29;69.99;99643.33;111667;1193;94896;-76
2021/11/04 00:06:55;;;;;;;0.40;0.40;;;;;;;9.29;69.90;99651.48;111853;1193;137756;-77
2021/11/04 00:09:22;;;;;;;0.50;0.40;;;;;;;9.30;70.04;99659.58;111674;1193;109937;-78
2021/11/04 00:11:50;;;;;;;0.40;0.30;;;;;;;9.36;69.86;99659.74;111873;1192;138258;-78
2021/11/04 00:14:18;;;;;;;0.40;0.40;;;;;;;9.40;69.72;99657.67;112067;1192;96812;-78
2021/11/04 00:16:49;;;;;;;0.40;0.30;;;;;;;9.43;69.67;99667.67;111568;1195;107569;-78
2021/11/04 00:19:17;;;;;;;0.40;0.30;;;;;;;9.45;69.63;99668.31;111912;1192;137880;-77
2021/11/04 00:21:45;;;;;;;0.40;0.40;;;;;;;9.47;69.45;99668.41;111970;1192;95039;-77
2021/11/04 00:24:12;;;;;;;0.40;0.40;;;;;;;9.44;69.54;99674.90;111897;1192;137670;-76
2021/11/04 00:26:40;;;;;;;0.40;0.30;;;;;;;9.37;69.63;99674.77;111724;1192;107591;-77
2021/11/04 00:29:08;;;;;;;0.40;0.30;;;;;;;9.35;69.64;99671.29;111838;1192;139190;-77
2021/11/04 00:31:36;;;;;;;0.40;0.40;;;;;;;9.30;69.77;99661.02;111944;1192;95348;-77
2021/11/04 00:34:03;;;;;;;0.40;0.30;;;;;;;9.25;69.87;99656.05;112059;1192;94849;-77
2021/11/04 00:36:31;;;;;;;0.40;0.40;;;;;;;9.21;70.02;99653.85;111555;1193;209347;-79
2021/11/04 00:38:59;;;;;;;0.50;0.40;;;;;;;9.17;70.04;99654.52;111938;1192;109666;-78
2021/11/04 00:41:26;;;;;;;0.40;0.40;;;;;;;9.25;70.20;99646.46;111551;1192;139093;-78
2021/11/04 00:43:56;;;;;;;0.40;0.40;;;;;;;9.31;69.95;99643.96;111761;1192;95569;-78
2021/11/04 00:46:24;;;;;;;0.40;0.40;;;;;;;9.32;69.94;99648.73;112647;1192;107024;-78
2021/11/04 00:48:52;;;;;;;0.40;0.30;;;;;;;9.28;70.12;99636.09;111892;1192;137667;-79
2021/11/04 00:51:20;;;;;;;0.50;0.40;;;;;;;9.24;70.12;99626.67;111973;1192;95007;-78
2021/11/04 00:53:47;;;;;;;0.40;0.40;;;;;;;9.24;70.14;99630.40;111465;1192;138028;-78
2021/11/04 00:56:15;;;;;;;0.40;0.30;;;;;;;9.27;70.23;99650.32;111642;1192;108611;-77
2021/11/04 00:58:43;;;;;;;0.40;0.40;;;;;;;9.30;70.18;99663.15;111678;1192;109012;-76
2021/11/04 01:01:11;;;;;;;0.40;0.40;;;;;;;9.31;70.25;99651.40;111616;1192;139563;-77
2021/11/04 01:03:38;;;;;;;0.40;0.40;;;;;;;9.36;70.12;99650.35;111742;1193;95023;-77
2021/11/04 01:06:06;;;;;;;0.40;0.40;;;;;;;9.33;69.98;99649.90;111821;1192;139285;-77
2021/11/04 01:08:34;;;;;;;0.50;0.50;;;;;;;9.34;69.98;99654.31;111966;1192;107487;-77
2021/11/04 01:11:02;;;;;;;0.40;0.40;;;;;;;9.33;69.99;99653.45;111642;1193;138419;-76
2021/11/04 01:13:30;;;;;;;0.40;0.40;;;;;;;9.30;70.04;99650.38;111949;1192;95308;-77
2021/11/04 01:15:57;;;;;;;0.40;0.40;;;;;;;9.32;69.98;99646.98;112021;1192;107037;-77
2021/11/04 01:18:25;;;;;;;0.50;0.40;;;;;;;9.37;69.85;99653.52;111534;1195;140586;-77
2021/11/04 01:20:53;;;;;;;0.40;0.40;;;;;;;9.38;69.81;99646.55;111782;1193;94864;-77
2021/11/04 01:23:21;;;;;;;0.50;0.40;;;;;;;9.37;69.73;99643.58;111580;1195;138153;-76
2021/11/04 01:25:49;;;;;;;0.50;0.40;;;;;;;9.38;69.69;99661.62;111981;1192;107340;-77
2021/11/04 01:28:17;;;;;;;0.50;0.50;;;;;;;9.41;69.66;99670.55;111912;1192;108746;-76
2021/11/04 01:30:45;;;;;;;0.40;0.40;;;;;;;9.45;69.53;99672.20;111842;1193;138951;-77
2021/11/04 01:33:13;;;;;;;0.40;0.30;;;;;;;9.51;69.45;99670.95;111656;1192;94885;-76
2021/11/04 01:35:41;;;;;;;0.50;0.40;;;;;;;9.56;69.70;99674.14;111824;1192;137514;-77
2021/11/04 01:38:08;;;;;;;0.40;0.40;;;;;;;9.65;69.59;99675.44;112028;1193;109663;-76
2021/11/04 01:40:37;;;;;;;0.50;0.40;;;;;;;9.72;69.64;99667.56;111986;1192;94900;-77
2021/11/04 01:43:05;;;;;;;0.40;0.30;;;;;;;9.74;69.26;99673.00;111838;1192;137617;-77
2021/11/04 01:45:33;;;;;;;0.40;0.30;;;;;;;9.73;69.40;99677.65;111755;1192;108391;-76
2021/11/04 01:48:02;;;;;;;0.40;0.40;;;;;;;9.71;69.36;99685.33;111712;1192;138918;-76
2021/11/04 01:50:31;;;;;;;0.40;0.30;;;;;;;9.70;69.12;99684.66;111951;1192;95388;-76
2021/11/04 01:52:59;;;;;;;0.40;0.40;;;;;;;9.73;69.01;99685.27;111558;1193;138667;-76
2021/11/04 01:55:27;;;;;;;0.40;0.30;;;;;;;9.77;69.09;99680.33;111852;1193;107500;-77
2021/11/04 01:57:56;;;;;;;0.40;0.40;;;;;;;9.73;68.92;99680.83;111617;1193;109584;-76
2021/11/04 02:00:28;;;;;;;0.50;0.40;;;;;;;9.75;68.89;99685.19;111719;1192;137786;-78
2021/11/04 02:03:22;;;;;;;0.40;0.30;;;;;;;9.84;68.78;99683.81;113062;1192;94914;-77
2021/11/04 02:06:11;;;;;;;0.40;0.30;;;;;;;9.93;68.06;99679.60;111604;1192;138573;-77
2021/11/04 02:09:01;;;;;;;0.50;0.40;;;;;;;9.92;68.04;99678.76;111703;1192;109637;-77
2021/11/04 02:11:40;;;;;;;0.50;0.40;;;;;;;9.91;67.95;99680.38;111937;1192;139802;-77
2021/11/04 02:14:22;;;;;;;0.40;0.40;;;;;;;9.92;68.01;99683.17;111888;1193;94997;-77
2021/11/04 02:16:52;;;;;;;0.40;0.30;;;;;;;9.96;67.87;99683.92;111963;1196;108654;-76
2021/11/04 02:19:47;;;;;;;0.40;0.40;;;;;;;9.97;67.98;99684.95;111806;1192;138619;-78
2021/11/04 02:22:27;;;;;;;0.40;0.30;;;;;;;10.10;67.49;99682.56;111684;1194;94844;-76
2021/11/04 02:25:08;;;;;;;0.40;0.30;;;;;;;10.18;67.20;99681.00;111864;1192;138286;-77
2021/11/04 02:27:44;;;;;;;0.40;0.40;;;;;;;10.17;67.26;99673.43;111629;1193;106165;-77
2021/11/04 02:30:13;;;;;;;0.40;0.40;;;;;;;10.07;66.92;99667.75;112124;1192;138791;-77
2021/11/04 02:32:41;;;;;;;0.40;0.30;;;;;;;10.02;67.06;99652.86;111723;1192;94938;-77
2021/11/04 02:35:09;;;;;;;0.40;0.30;;;;;;;9.98;67.02;99649.80;111816;1192;139206;-77
2021/11/04 02:37:37;;;;;;;0.40;0.30;;;;;;;9.94;67.23;99647.50;111607;1192;106520;-77
2021/11/04 02:40:07;;;;;;;0.40;0.30;;;;;;;9.90;67.44;99638.06;111625;1192;109334;-78
2021/11/04 02:42:36;;;;;;;0.50;0.40;;;;;;;9.87;67.37;99630.88;111940;1192;138219;-77
2021/11/04 02:45:06;;;;;;;0.40;0.30;;;;;;;9.86;67.26;99623.81;112780;1193;94922;-77
2021/11/04 02:47:36;;;;;;;0.40;0.30;;;;;;;9.84;67.22;99616.79;111589;1192;137965;-77
2021/11/04 02:50:05;;;;;;;0.40;0.30;;;;;;;9.81;67.34;99613.73;111610;1192;108565;-77
2021/11/04 02:52:34;;;;;;;0.40;0.30;;;;;;;9.81;67.41;99617.09;111583;1192;94883;-77
2021/11/04 02:55:03;;;;;;;0.40;0.40;;;;;;;9.88;67.32;99615.93;111806;1192;138314;-78
2021/11/04 02:57:32;;;;;;;0.40;0.30;;;;;;;9.91;67.06;99617.07;111857;1192;108524;-77
2021/11/04 03:00:00;;;;;;;0.40;0.40;;;;;;;9.94;67.19;99611.14;111535;1193;137975;-78
2021/11/04 03:02:27;;;;;;;0.50;0.40;;;;;;;9.93;67.19;99606.02;111767;1192;95321;-77
2021/11/04 03:04:55;;;;;;;0.40;0.30;;;;;;;9.96;67.40;99605.74;111895;1192;95861;-77
2021/11/04 03:07:23;;;;;;;0.40;0.30;;;;;;;9.96;67.12;99598.27;111868;1192;137971;-77
2021/11/04 03:09:51;;;;;;;0.40;0.30;;;;;;;9.90;66.87;99603.45;111961;1192;109488;-77
2021/11/04 03:12:18;;;;;;;0.40;0.30;;;;;;;9.82;67.10;99603.77;111875;1192;138112;-76
2021/11/04 03:14:47;;;;;;;0.40;0.30;;;;;;;9.73;67.26;99606.04;111874;1192;95343;-77
2021/11/04 03:17:16;;;;;;;0.40;0.40;;;;;;;9.68;67.26;99602.66;111549;1193;137695;-76
2021/11/04 03:19:44;;;;;;;0.50;0.40;;;;;;;9.68;67.57;99598.20;111898;1192;110129;-77
2021/11/04 03:22:12;;;;;;;0.40;0.30;;;;;;;9.66;67.37;99595.11;111929;1192;94894;-76
2021/11/04 03:24:39;;;;;;;0.40;0.40;;;;;;;9.62;67.46;99583.38;111587;1192;137961;-76
2021/11/04 03:27:08;;;;;;;0.40;0.30;;;;;;;9.64;67.22;99582.39;111903;1192;106448;-77
2021/11/04 03:29:38;;;;;;;0.40;0.30;;;;;;;9.63;67.20;99583.52;111565;1192;138069;-77
2021/11/04 03:32:12;;;;;;;0.40;0.30;;;;;;;9.62;67.27;99577.70;114914;1192;94012;-76
2021/11/04 03:34:42;;;;;;;0.40;0.40;;;;;;;9.61;67.16;99575.44;115157;1192;94042;-77
2021/11/04 03:37:11;;;;;;;0.40;0.30;;;;;;;9.66;67.19;99564.98;114780;1192;138281;-77
2021/11/04 03:39:40;;;;;;;0.40;0.30;;;;;;;9.68;66.60;99565.42;115146;1191;108524;-77
2021/11/04 03:42:09;;;;;;;0.40;0.30;;;;;;;9.63;66.78;99562.39;112394;1192;137759;-76
2021/11/04 03:44:39;;;;;;;0.40;0.40;;;;;;;9.61;66.67;99558.24;111617;1195;94862;-77
2021/11/04 03:47:08;;;;;;;0.40;0.40;;;;;;;9.64;66.71;99547.87;111642;1194;138216;-75
2021/11/04 03:49:36;;;;;;;0.40;0.30;;;;;;;9.65;66.37;99546.40;111857;1192;109494;-78
2021/11/04 03:52:04;;;;;;;0.40;0.40;;;;;;;9.64;66.44;99540.77;111745;1193;94984;-77
2021/11/04 03:54:32;;;;;;;0.40;0.30;;;;;;;9.64;66.38;99539.16;111563;1193;137250;-77
2021/11/04 03:57:00;;;;;;;0.40;0.30;;;;;;;9.58;66.20;99536.02;111553;1193;108385;-76
2021/11/04 03:59:28;;;;;;;0.40;0.30;;;;;;;9.58;66.21;99536.00;111573;1193;138978;-77
2021/11/04 04:01:56;;;;;;;0.40;0.30;;;;;;;9.58;66.16;99530.02;111665;1193;94900;-75
2021/11/04 04:04:24;;;;;;;0.40;0.30;;;;;;;9.56;66.02;99524.76;111952;1192;94867;-76
2021/11/04 04:06:56;;;;;;;0.50;0.40;;;;;;;9.55;66.51;99522.66;111783;1192;138345;-77
2021/11/04 04:09:25;;;;;;;0.40;0.30;;;;;;;9.61;66.19;99527.23;115164;1192;109144;-77
2021/11/04 04:11:53;;;;;;;0.40;0.40;;;;;;;9.66;65.79;99534.49;115039;1192;138608;-77
2021/11/04 04:14:21;;;;;;;0.40;0.40;;;;;;;9.66;65.39;99528.45;114839;1192;93401;-77
2021/11/04 04:16:49;;;;;;;0.40;0.40;;;;;;;9.62;65.40;99531.61;114288;1192;107477;-77
2021/11/04 04:19:17;;;;;;;0.40;0.40;;;;;;;9.65;65.44;99539.48;111770;1192;137701;-77
2021/11/04 04:21:44;;;;;;;0.40;0.30;;;;;;;9.68;65.27;99537.25;111952;1192;95047;-77
2021/11/04 04:24:12;;;;;;;0.40;0.40;;;;;;;9.68;65.15;99533.36;111847;1192;137416;-77
2021/11/04 04:26:40;;;;;;;0.40;0.40;;;;;;;9.63;65.30;99536.55;111641;1192;108413;-77
2021/11/04 04:29:08;;;;;;;0.40;0.30;;;;;;;9.59;65.13;99536.68;111642;1192;137849;-77
2021/11/04 04:31:35;;;;;;;0.40;0.30;;;;;;;9.61;65.42;99541.93;111978;1192;95495;-77
2021/11/04 04:34:03;;;;;;;0.40;0.30;;;;;;;9.61;65.33;99544.41;111691;1193;96052;-77
2021/11/04 04:36:33;;;;;;;0.40;0.30;;;;;;;9.59;65.19;99538.45;111573;1193;138567;-76
2021/11/04 04:39:00;;;;;;;0.40;0.40;;;;;;;9.58;65.29;99531.41;111886;1192;109415;-77
2021/11/04 04:41:29;;;;;;;0.40;0.30;;;;;;;9.57;65.05;99530.39;111551;1195;139532;-77
2021/11/04 04:43:56;;;;;;;0.40;0.30;;;;;;;9.58;64.79;99525.59;111685;1196;94984;-76
2021/11/04 04:46:24;;;;;;;0.40;0.30;;;;;;;9.53;64.63;99518.45;111725;1193;109434;-76
2021/11/04 04:48:52;;;;;;;0.40;0.30;;;;;;;9.52;64.82;99511.95;111782;1192;138164;-76
2021/11/04 04:51:20;;;;;;;0.40;0.40;;;;;;;9.54;65.24;99509.03;111682;1194;94987;-77
2021/11/04 04:53:48;;;;;;;0.40;0.40;;;;;;;9.56;64.73;99505.95;111806;1192;138208;-77
2021/11/04 04:56:16;;;;;;;0.40;0.30;;;;;;;9.56;64.53;99502.94;111759;1193;108584;-76
2021/11/04 04:58:44;;;;;;;0.40;0.30;;;;;;;9.58;64.56;99498.81;111934;1192;109922;-76
2021/11/04 05:01:11;;;;;;;0.50;0.40;;;;;;;9.58;64.27;99504.30;111621;1193;138065;-77
2021/11/04 05:03:40;;;;;;;0.40;0.40;;;;;;;9.59;64.01;99505.35;111589;1195;94870;-76
2021/11/04 05:06:08;;;;;;;0.40;0.30;;;;;;;9.56;64.05;99506.48;111588;1192;137799;-76
2021/11/04 05:08:36;;;;;;;0.40;0.30;;;;;;;9.54;64.22;99501.40;111925;1192;106448;-77
2021/11/04 05:11:04;;;;;;;0.40;0.30;;;;;;;9.56;64.08;99498.35;111557;1193;137548;-77
2021/11/04 05:13:32;;;;;;;0.50;0.40;;;;;;;9.55;64.20;99489.87;111893;1192;95386;-77
2021/11/04 05:16:00;;;;;;;0.40;0.40;;;;;;;9.57;64.08;99487.86;111938;1192;109081;-77
2021/11/04 05:18:28;;;;;;;0.40;0.30;;;;;;;9.57;63.75;99478.45;111650;1192;138823;-76
2021/11/04 05:20:55;;;;;;;0.40;0.40;;;;;;;9.57;64.02;99464.64;111728;1193;94970;-77
2021/11/04 05:23:23;;;;;;;0.40;0.40;;;;;;;9.56;63.99;99457.07;111820;1192;137362;-77
2021/11/04 05:25:51;;;;;;;0.40;0.40;;;;;;;9.56;64.02;99450.86;111696;1192;108737;-77
2021/11/04 05:28:18;;;;;;;0.40;0.40;;;;;;;9.60;64.20;99444.88;111954;1192;107520;-79
2021/11/04 05:30:46;;;;;;;0.40;0.30;;;;;;;9.60;63.76;99437.61;111779;1192;138753;-77
2021/11/04 05:33:14;;;;;;;0.40;0.30;;;;;;;9.55;63.80;99429.61;112042;1192;94900;-77
2021/11/04 05:35:42;;;;;;;0.40;0.30;;;;;;;9.52;64.15;99429.55;111605;1193;137793;-78
2021/11/04 05:38:10;;;;;;;0.40;0.40;;;;;;;9.53;63.97;99424.73;111698;1195;106889;-76
2021/11/04 05:40:37;;;;;;;0.40;0.30;;;;;;;9.52;63.53;99429.02;111922;1192;94893;-76
2021/11/04 05:43:05;;;;;;;0.40;0.30;;;;;;;9.50;63.44;99427.49;111737;1192;137658;-77
2021/11/04 05:45:33;;;;;;;0.40;0.30;;;;;;;9.51;63.44;99424.09;111933;1192;108553;-79
2021/11/04 05:48:01;;;;;;;0.40;0.40;;;;;;;9.50;63.43;99426.44;111559;1193;138705;-77
2021/11/04 05:50:28;;;;;;;0.40;0.40;;;;;;;9.51;63.68;99424.64;111753;1192;95413;-77
2021/11/04 05:52:56;;;;;;;0.40;0.40;;;;;;;9.55;63.30;99421.46;111664;1192;96044;-76
2021/11/04 05:55:24;;;;;;;0.40;0.30;;;;;;;9.55;63.48;99424.81;111564;1192;138353;-76
2021/11/04 05:57:52;;;;;;;0.40;0.30;;;;;;;9.64;64.15;99424.88;111636;1193;109329;-78
2021/11/04 06:00:19;;;;;;;0.50;0.40;;;;;;;9.71;63.55;99426.52;111572;1192;137761;-77
2021/11/04 06:02:47;;;;;;;0.40;0.30;;;;;;;9.69;62.77;99426.63;111909;1192;94796;-78
2021/11/04 06:05:15;;;;;;;0.40;0.30;;;;;;;9.67;62.82;99419.77;111572;1194;137984;-77
2021/11/04 06:07:42;;;;;;;0.40;0.30;;;;;;;9.70;63.05;99419.14;111769;1192;108583;-78
2021/11/04 06:10:10;;;;;;;0.40;0.30;;;;;;;9.70;63.14;99422.15;111963;1192;95757;-78
2021/11/04 06:12:41;;;;;;;0.50;0.40;;;;;;;9.64;62.57;99430.88;111583;1193;138251;-78
2021/11/04 06:15:08;;;;;;;0.40;0.30;;;;;;;9.63;62.84;99423.64;111911;1192;107651;-78
2021/11/04 06:17:36;;;;;;;0.40;0.30;;;;;;;9.63;62.95;99419.03;111547;1193;138008;-78
2021/11/04 06:20:04;;;;;;;0.40;0.30;;;;;;;9.65;63.09;99412.40;111709;1192;94965;-78
2021/11/04 06:22:34;;;;;;;0.40;0.30;;;;;;;9.67;63.02;99402.60;111560;1195;95367;-78
2021/11/04 06:25:03;;;;;;;0.40;0.40;;;;;;;9.67;62.65;99402.95;111838;1192;138031;-79
2021/11/04 06:27:32;;;;;;;0.40;0.30;;;;;;;9.72;62.93;99409.14;112010;1192;108440;-78
2021/11/04 06:30:01;;;;;;;0.40;0.30;;;;;;;9.82;62.82;99414.05;111768;1193;138900;-77
2021/11/04 06:32:29;;;;;;;0.40;0.30;;;;;;;9.89;62.48;99409.35;111976;1192;95413;-77
2021/11/04 06:34:57;;;;;;;0.40;0.30;;;;;;;9.85;62.62;99408.23;111707;1193;108764;-76
2021/11/04 06:37:25;;;;;;;0.40;0.30;;;;;;;9.86;62.53;99408.76;111563;1193;138012;-77
2021/11/04 06:39:52;;;;;;;0.40;0.30;;;;;;;9.94;62.41;99409.50;111710;1193;94961;-77
2021/11/04 06:42:20;;;;;;;0.40;0.30;;;;;;;9.95;62.08;99412.50;111992;1192;137396;-77
2021/11/04 06:44:48;;;;;;;0.40;0.30;;;;;;;9.95;61.86;99413.58;111691;1193;109106;-78
2021/11/04 06:47:34;;;;;;;0.40;0.40;;;;;;;9.96;62.08;99411.04;111959;1192;137592;-77
2021/11/04 06:50:04;;;;;;;0.40;0.30;;;;;;;9.95;61.85;99404.86;111926;1192;95291;-77
2021/11/04 06:52:54;;;;;;;0.40;0.30;;;;;;;9.98;62.04;99403.33;111757;1193;94936;-77
2021/11/04 06:55:26;;;;;;;0.40;0.30;;;;;;;10.00;62.25;99406.25;111968;1192;137849;-77
2021/11/04 06:58:00;;;;;;;0.40;0.30;;;;;;;10.00;61.95;99409.44;112025;1192;107704;-76
2021/11/04 07:00:36;;;;;;;0.40;0.30;;;;;;;10.01;61.96;99410.84;112479;1192;137987;-78
2021/11/04 07:03:19;;;;;;;0.40;0.30;;;;;;;10.07;62.18;99407.59;112288;1192;94950;-76
2021/11/04 07:05:47;;;;;;;0.40;0.30;;;;;;;10.16;62.26;99397.84;111998;1192;139360;-77
2021/11/04 07:08:23;;;;;;;0.40;0.30;;;;;;;10.19;62.03;99396.26;112221;1192;108536;-76
2021/11/04 07:11:00;;;;;;;0.40;0.30;;;;;;;10.18;61.51;99400.55;111791;1192;94904;-77
2021/11/04 07:13:31;;;;;;;0.40;0.40;;;;;;;10.15;61.81;99397.66;112212;1192;138529;-78
2021/11/04 07:16:00;;;;;;;0.40;0.30;;;;;;;10.16;61.82;99392.48;111694;1193;108421;-77
2021/11/04 07:18:28;;;;;;;0.40;0.30;;;;;;;10.22;62.12;99386.91;112116;1192;137986;-77
2021/11/04 07:21:00;;;;;;;0.40;0.30;;;;;;;10.27;62.21;99378.92;112071;1192;94995;-76
2021/11/04 07:23:39;;;;;;;0.40;0.30;;;;;;;10.31;62.10;99369.90;111919;1192;137561;-77
2021/11/04 07:26:08;;;;;;;0.40;0.30;;;;;;;10.31;61.87;99359.23;112574;1195;107286;-77
2021/11/04 07:28:40;;;;;;;0.40;0.30;;;;;;;10.35;61.37;99349.52;112003;1192;109790;-78
2021/11/04 07:31:10;;;;;;;0.40;0.30;;;;;;;10.36;61.39;99343.98;111837;1192;138432;-77
2021/11/04 07:33:44;;;;;;;0.40;0.30;;;;;;;10.34;61.51;99336.77;112592;1192;94888;-76
2021/11/04 07:36:14;;;;;;;0.40;0.30;;;;;;;10.33;61.37;99326.33;111856;1192;138335;-77
2021/11/04 07:38:45;;;;;;;0.40;0.30;;;;;;;10.34;61.93;99321.49;112128;1193;108419;-77
2021/11/04 07:41:14;;;;;;;0.40;0.40;;;;;;;10.43;61.63;99320.98;111863;1193;138534;-77
2021/11/04 07:43:42;;;;;;;0.40;0.30;;;;;;;10.50;61.52;99317.13;113060;1193;94870;-77
2021/11/04 07:46:10;;;;;;;0.40;0.30;;;;;;;10.57;61.19;99313.42;111916;1192;108104;-79
2021/11/04 07:48:41;;;;;;;0.40;0.30;;;;;;;10.63;61.50;99316.56;111785;1193;137716;-78
2021/11/04 07:51:10;;;;;;;0.40;0.30;;;;;;;10.68;61.19;99314.91;112192;1192;94923;-78
2021/11/04 07:53:39;;;;;;;0.40;0.30;;;;;;;10.69;61.00;99306.38;112036;1192;138458;-76
2021/11/04 07:56:09;;;;;;;0.40;0.30;;;;;;;10.74;61.21;99296.55;112242;1192;108975;-75
2021/11/04 07:58:37;;;;;;;0.40;0.30;;;;;;;10.77;61.21;99301.23;112052;1192;110232;-76
2021/11/04 08:01:05;;;;;;;0.40;0.30;;;;;;;10.78;61.00;99300.99;112001;1192;138280;-75
2021/11/04 08:03:33;;;;;;;0.40;0.30;;;;;;;10.82;61.25;99295.67;112164;1192;95540;-77
2021/11/04 08:06:01;;;;;;;0.40;0.30;;;;;;;10.86;61.27;99289.95;111948;1192;139126;-76
2021/11/04 08:08:28;;;;;;;0.40;0.30;;;;;;;10.91;60.97;99289.92;111544;1195;109846;-77
2021/11/04 08:10:56;;;;;;;0.40;0.30;;;;;;;10.95;60.96;99286.34;111702;1192;96143;-76
2021/11/04 08:13:24;;;;;;;0.40;0.30;;;;;;;10.99;61.05;99281.58;111694;1193;137745;-75
2021/11/04 08:15:52;;;;;;;0.40;0.30;;;;;;;10.96;60.39;99280.45;112001;1192;107349;-77
2021/11/04 08:18:19;;;;;;;0.40;0.30;;;;;;;10.98;60.65;99278.23;111607;1192;138400;-77
2021/11/04 08:20:47;;;;;;;0.40;0.30;;;;;;;10.96;60.26;99274.21;111957;1192;95001;-76
2021/11/04 08:23:15;;;;;;;0.40;0.30;;;;;;;11.04;60.86;99266.06;111927;1192;139298;-76
2021/11/04 08:25:44;;;;;;;0.40;0.30;;;;;;;11.10;60.63;99254.60;111981;1197;108040;-77
2021/11/04 08:28:11;;;;;;;0.40;0.30;;;;;;;11.14;60.31;99252.66;111744;1195;108422;-77
2021/11/04 08:30:39;;;;;;;0.40;0.30;;;;;;;11.20;60.07;99251.27;111634;1193;138526;-77
2021/11/04 08:33:11;;;;;;;0.40;0.30;;;;;;;11.23;60.23;99247.56;111729;1193;94966;-78
2021/11/04 08:35:39;;;;;;;0.40;0.30;;;;;;;11.28;60.42;99247.02;111840;1192;138553;-76
2021/11/04 08:38:06;;;;;;;0.40;0.30;;;;;;;11.36;60.56;99237.90;111721;1192;108436;-76
2021/11/04 08:40:34;;;;;;;0.40;0.30;;;;;;;11.43;60.05;99236.66;111770;1193;95415;-76
2021/11/04 08:43:03;;;;;;;0.40;0.20;;;;;;;11.52;60.26;99231.95;111573;1195;138557;-77
2021/11/04 08:45:32;;;;;;;0.40;0.20;;;;;;;11.54;59.70;99233.48;111962;1192;107496;-76
2021/11/04 08:48:00;;;;;;;0.40;0.30;;;;;;;11.52;60.06;99222.58;111566;1193;138158;-77
2021/11/04 08:50:28;;;;;;;0.40;0.30;;;;;;;11.62;60.19;99235.25;111741;1193;94903;-77
2021/11/04 08:52:56;;;;;;;0.40;0.20;;;;;;;11.66;59.67;99233.75;111602;1195;95424;-76
2021/11/04 08:55:24;;;;;;;0.40;0.30;;;;;;;11.70;59.93;99228.94;111552;1194;137586;-78
2021/11/04 08:57:53;;;;;;;0.40;0.30;;;;;;;11.71;59.82;99225.37;111903;1192;108425;-77
2021/11/04 09:00:22;;;;;;;0.40;0.30;;;;;;;11.73;59.89;99222.25;111670;1195;139168;-76
2021/11/04 09:02:49;;;;;;;0.40;0.30;;;;;;;11.74;59.69;99221.83;112013;1192;97866;-77
2021/11/04 09:05:18;;;;;;;0.40;0.20;;;;;;;11.74;59.60;99219.88;111810;1192;137948;-77
2021/11/04 09:07:45;;;;;;;0.40;0.30;;;;;;;11.77;60.11;99226.33;111747;1192;109464;-76
2021/11/04 09:10:15;;;;;;;0.40;0.20;;;;;;;11.82;59.68;99228.88;112116;1192;94888;-76
2021/11/04 09:12:43;;;;;;;0.40;0.20;;;;;;;11.90;59.70;99227.25;111617;1193;138262;-77
2021/11/04 09:15:11;;;;;;;0.40;0.30;;;;;;;11.98;59.63;99224.04;112001;1192;108798;-76
2021/11/04 09:17:40;;;;;;;0.40;0.20;;;;;;;12.07;59.71;99216.29;111751;1192;137893;-77
2021/11/04 09:20:11;;;;;;;0.40;0.30;;;;;;;12.15;59.49;99211.06;111659;1193;96771;-77
2021/11/04 09:22:46;;;;;;;0.40;0.30;;;;;;;12.20;59.33;99210.09;111950;1192;94842;-77
2021/11/04 09:25:16;;;;;;;0.40;0.20;;;;;;;12.24;59.20;99199.95;111894;1193;138589;-77
2021/11/04 09:27:45;;;;;;;0.40;0.20;;;;;;;12.27;58.78;99197.11;111731;1194;108458;-77
2021/11/04 09:30:14;;;;;;;0.40;0.20;;;;;;;12.31;58.53;99186.73;112092;1192;138408;-77
2021/11/04 09:32:44;;;;;;;0.40;0.20;;;;;;;12.34;58.86;99173.77;112070;1192;94885;-76
2021/11/04 09:35:15;;;;;;;0.40;0.20;;;;;;;12.42;58.47;99171.23;111748;1192;138967;-77
2021/11/04 09:37:43;;;;;;;0.40;0.20;;;;;;;12.49;58.29;99163.55;111663;1193;110027;-77
2021/11/04 09:40:13;;;;;;;0.40;0.30;;;;;;;12.52;57.96;99156.40;112035;1193;94996;-77
2021/11/04 09:42:41;;;;;;;0.40;0.30;;;;;;;12.59;58.21;99146.09;111637;1192;139279;-76
2021/11/04 09:45:09;;;;;;;0.40;0.20;;;;;;;12.67;58.49;99138.70;111811;1193;108476;-77
2021/11/04 09:47:36;;;;;;;0.40;0.20;;;;;;;12.79;58.08;99130.05;111935;1192;138887;-77
2021/11/04 09:50:12;;;;;;;0.40;0.20;;;;;;;12.89;57.63;99122.36;112000;1192;96431;-78
2021/11/04 09:52:41;;;;;;;0.40;0.20;;;;;;;12.97;57.67;99119.39;111850;1193;95628;-77
2021/11/04 09:55:17;;;;;;;0.40;0.20;;;;;;;13.10;57.53;99117.95;111804;1193;138059;-77
2021/11/04 09:57:52;;;;;;;0.40;0.20;;;;;;;13.16;56.94;99109.56;111947;1193;108479;-76
2021/11/04 10:00:21;;;;;;;0.40;0.20;;;;;;;13.27;57.16;99091.13;111729;1193;138412;-76
2021/11/04 10:03:03;;;;;;;0.40;0.20;;;;;;;13.35;56.45;99089.41;111946;1193;94885;-78
2021/11/04 10:05:39;;;;;;;0.40;0.20;;;;;;;13.41;56.97;99085.32;111862;1193;139124;-78
2021/11/04 10:08:09;;;;;;;0.40;0.20;;;;;;;13.45;56.42;99076.58;111779;1193;109152;-76
2021/11/04 10:10:37;;;;;;;0.40;0.20;;;;;;;13.51;56.69;99079.56;111764;1193;95356;-77
2021/11/04 10:13:07;;;;;;;0.40;0.20;;;;;;;13.56;56.66;99068.61;111876;1192;138943;-77
2021/11/04 10:15:37;;;;;;;0.40;0.20;;;;;;;13.57;56.25;99072.83;112013;1193;107588;-79
2021/11/04 10:18:10;;;;;;;0.40;0.20;;;;;;;13.52;56.27;99078.98;111862;1193;138530;-76
2021/11/04 10:20:38;;;;;;;0.40;0.20;;;;;;;13.59;56.89;99073.41;112010;1193;94878;-77
2021/11/04 10:23:12;;;;;;;0.40;0.20;;;;;;;13.66;56.89;99072.83;111951;1192;137221;-78
2021/11/04 10:25:41;;;;;;;0.40;0.20;;;;;;;13.71;56.19;99067.89;111850;1193;108493;-79
2021/11/04 10:28:29;;;;;;;0.40;0.20;;;;;;;13.79;56.24;99070.77;111750;1193;107481;-78
2021/11/04 10:31:00;;;;;;;0.40;0.20;;;;;;;13.93;56.28;99069.91;111458;1195;139562;-79
2021/11/04 10:33:29;;;;;;;0.40;0.20;;;;;;;14.06;55.61;99064.30;111817;1193;94979;-77
2021/11/04 10:36:00;;;;;;;0.40;0.20;;;;;;;14.12;54.97;99066.41;111642;1193;137718;-77
2021/11/04 10:38:33;;;;;;;0.40;0.20;;;;;;;14.15;55.19;99066.79;111980;1193;108278;-79
2021/11/04 10:41:06;;;;;;;0.40;0.20;;;;;;;14.15;55.03;99054.08;111714;1194;95418;-77
2021/11/04 10:43:36;;;;;;;0.40;0.20;;;;;;;14.13;54.90;99051.36;111650;1193;137941;-78
2021/11/04 10:46:07;;;;;;;0.40;0.20;;;;;;;14.17;54.87;99040.79;111482;1196;107521;-77
2021/11/04 10:48:36;;;;;;;0.40;0.20;;;;;;;14.16;54.90;99040.45;111543;1196;138362;-78
2021/11/04 10:51:04;;;;;;;0.40;0.20;;;;;;;14.15;54.95;99050.69;111833;1193;95042;-77
2021/11/04 10:53:32;;;;;;;0.40;0.20;;;;;;;14.22;55.17;99042.09;111747;1192;137727;-78
2021/11/04 10:56:14;;;;;;;0.40;0.20;;;;;;;14.29;55.20;99035.05;111742;1193;107243;-78
2021/11/04 10:58:43;;;;;;;0.40;0.20;;;;;;;14.32;55.04;99038.76;111723;1193;108979;-78
2021/11/04 11:01:24;;;;;;;0.40;0.20;;;;;;;14.37;55.07;99025.61;111639;1193;137865;-77
2021/11/04 11:04:01;;;;;;;0.40;0.20;;;;;;;14.46;55.18;99023.39;112000;1192;97213;-80
2021/11/04 11:06:30;;;;;;;0.40;0.20;;;;;;;14.51;54.78;99009.31;111900;1192;137994;-77
2021/11/04 11:09:05;;;;;;;0.40;0.20;;;;;;;14.55;54.77;99002.63;112506;1192;108471;-78
2021/11/04 11:11:44;;;;;;;0.40;0.10;;;;;;;14.50;54.33;98999.94;111797;1193;137831;-79
2021/11/04 11:14:13;;;;;;;0.40;0.20;;;;;;;14.47;54.55;99006.52;112176;1192;95880;-76
2021/11/04 11:16:52;;;;;;;0.40;0.20;;;;;;;14.48;54.87;99000.44;113114;1193;107642;-77
2021/11/04 11:19:21;;;;;;;0.40;0.10;;;;;;;14.50;54.65;98996.74;111962;1193;139277;-77
2021/11/04 11:21:53;;;;;;;0.40;0.20;;;;;;;14.45;54.61;98996.67;111768;1192;94987;-79
2021/11/04 11:24:31;;;;;;;0.40;0.20;;;;;;;14.40;54.56;98998.95;111666;1193;138100;-79
2021/11/04 11:27:01;;;;;;;0.40;0.20;;;;;;;14.37;55.05;98988.98;111665;1193;107336;-79
2021/11/04 11:29:33;;;;;;;0.40;0.20;;;;;;;14.38;55.10;98981.23;111664;1193;138900;-79
2021/11/04 11:32:02;;;;;;;0.40;0.20;;;;;;;14.41;55.02;98985.17;111649;1193;97181;-77
2021/11/04 11:34:33;;;;;;;0.40;0.20;;;;;;;14.37;54.89;98989.34;111756;1193;95068;-78
2021/11/04 11:37:10;;;;;;;0.40;0.20;;;;;;;14.31;54.99;98976.88;112053;1192;138010;-79